Time;durP1;ratioP1;P1;durP2;ratioP2;P2;SDS_P1;SDS_P2;PMS_P1;PMS_P2;Temp;Humidity;BMP_temperature;BMP_pressure;BME280_temperature;BME280_humidity;BME280_pressure;Samples;Min_cycle;Max_cycle;Signal;HPM_P1;HPM_P2
2024/02/27 00:02:09;;;;;;;17.92;15.13;;;;;;;;;;5052814;28;20065;-61
2024/02/27 00:04:37;;;;;;;17.48;15.02;;;;;;;;;;5053602;28;20057;-61
2024/02/27 00:07:04;;;;;;;18.48;15.52;;;;;;;;;;5053284;28;20057;-62
2024/02/27 00:09:31;;;;;;;19.77;16.40;;;;;;;;;;5053516;28;20059;-61
2024/02/27 00:11:58;;;;;;;21.30;17.15;;;;;;;;;;5052878;28;20056;-61
2024/02/27 00:14:25;;;;;;;18.73;16.08;;;;;;;;;;5053298;28;20060;-62
2024/02/27 00:16:52;;;;;;;18.95;15.63;;;;;;;;;;5053577;28;20072;-61
2024/02/27 00:19:19;;;;;;;19.10;15.82;;;;;;;;;;5053329;28;20399;-61
2024/02/27 00:21:47;;;;;;;20.50;16.88;;;;;;;;;;5053144;28;20053;-61
2024/02/27 00:24:13;;;;;;;19.50;16.63;;;;;;;;;;5053182;28;20057;-61
2024/02/27 00:26:40;;;;;;;20.50;17.60;;;;;;;;;;5052728;28;20411;-61
2024/02/27 00:29:07;;;;;;;22.02;18.08;;;;;;;;;;5052982;28;20060;-61
2024/02/27 00:31:34;;;;;;;19.90;17.00;;;;;;;;;;5052676;28;20057;-61
2024/02/27 00:34:01;;;;;;;20.42;18.02;;;;;;;;;;5052766;28;20049;-61
2024/02/27 00:36:28;;;;;;;19.92;17.27;;;;;;;;;;5052804;28;20056;-61
2024/02/27 00:38:56;;;;;;;21.42;17.98;;;;;;;;;;5052572;28;20088;-61
2024/02/27 00:41:23;;;;;;;20.95;17.63;;;;;;;;;;5052455;28;20066;-61
2024/02/27 00:43:50;;;;;;;21.52;17.77;;;;;;;;;;5052821;28;20056;-61
2024/02/27 00:46:16;;;;;;;21.20;17.92;;;;;;;;;;5052473;28;20057;-60
2024/02/27 00:48:43;;;;;;;21.20;16.80;;;;;;;;;;5052662;28;20059;-62
2024/02/27 00:51:10;;;;;;;22.02;17.83;;;;;;;;;;5052552;28;20059;-62
2024/02/27 00:53:37;;;;;;;20.52;17.65;;;;;;;;;;5052512;28;20491;-61
2024/02/27 00:56:06;;;;;;;19.58;16.25;;;;;;;;;;5052472;28;20059;-62
2024/02/27 00:58:34;;;;;;;20.53;16.83;;;;;;;;;;5052614;28;20482;-62
2024/02/27 01:01:01;;;;;;;19.92;17.02;;;;;;;;;;5052109;28;20060;-62
2024/02/27 01:03:28;;;;;;;21.05;18.30;;;;;;;;;;5052235;28;20057;-61
2024/02/27 01:05:55;;;;;;;21.83;17.20;;;;;;;;;;5052354;28;20044;-61
2024/02/27 01:08:22;;;;;;;18.10;15.52;;;;;;;;;;5052236;28;20060;-61
2024/02/27 01:10:48;;;;;;;20.25;16.98;;;;;;;;;;5051977;28;20056;-61
2024/02/27 01:13:17;;;;;;;20.67;17.27;;;;;;;;;;5052269;28;20472;-61
2024/02/27 01:15:44;;;;;;;20.27;16.25;;;;;;;;;;5052005;28;20068;-61
2024/02/27 01:18:10;;;;;;;20.65;16.52;;;;;;;;;;5049131;28;20400;-62
2024/02/27 01:20:37;;;;;;;20.83;17.75;;;;;;;;;;5031902;28;20061;-61
2024/02/27 01:23:04;;;;;;;20.52;16.75;;;;;;;;;;5032089;28;20057;-61
2024/02/27 01:25:31;;;;;;;21.98;18.10;;;;;;;;;;5031945;28;20049;-60
2024/02/27 01:27:58;;;;;;;22.83;18.55;;;;;;;;;;5031968;28;20056;-61
2024/02/27 01:30:26;;;;;;;20.90;17.50;;;;;;;;;;5032226;28;20053;-61
2024/02/27 01:32:53;;;;;;;20.98;17.13;;;;;;;;;;5032108;28;20080;-61
2024/02/27 01:35:20;;;;;;;21.33;17.85;;;;;;;;;;5032198;28;20049;-61
2024/02/27 01:37:46;;;;;;;21.25;17.25;;;;;;;;;;5031913;28;20063;-61
2024/02/27 01:40:13;;;;;;;20.95;16.85;;;;;;;;;;5031848;28;20058;-62
2024/02/27 01:42:43;;;;;;;22.15;17.33;;;;;;;;;;5032033;28;20057;-62
2024/02/27 01:45:15;;;;;;;21.98;17.83;;;;;;;;;;5032437;28;20054;-62
2024/02/27 01:47:43;;;;;;;21.27;17.13;;;;;;;;;;5031715;28;20438;-62
2024/02/27 01:50:10;;;;;;;23.27;18.75;;;;;;;;;;5032381;28;20053;-62
2024/02/27 01:52:37;;;;;;;21.33;17.50;;;;;;;;;;5031846;28;20054;-62
2024/02/27 01:55:04;;;;;;;22.00;17.88;;;;;;;;;;5032301;28;20045;-61
2024/02/27 01:57:31;;;;;;;22.58;18.23;;;;;;;;;;5031833;28;20064;-61
2024/02/27 01:59:58;;;;;;;22.95;17.85;;;;;;;;;;5035574;28;20053;-62
2024/02/27 02:02:25;;;;;;;20.88;17.15;;;;;;;;;;5035862;28;20054;-61
2024/02/27 02:04:54;;;;;;;22.17;17.70;;;;;;;;;;5036418;28;20064;-61
2024/02/27 02:07:20;;;;;;;23.13;17.77;;;;;;;;;;5036211;28;20053;-61
2024/02/27 02:09:47;;;;;;;24.35;18.95;;;;;;;;;;5036311;28;20054;-61
2024/02/27 02:12:14;;;;;;;23.50;18.35;;;;;;;;;;5036079;28;20419;-61
2024/02/27 02:14:41;;;;;;;25.75;21.42;;;;;;;;;;5036178;28;20064;-62
2024/02/27 02:17:08;;;;;;;22.40;18.02;;;;;;;;;;5036053;28;20064;-61
2024/02/27 02:19:35;;;;;;;22.75;18.20;;;;;;;;;;5035913;28;20057;-61
2024/02/27 02:22:03;;;;;;;23.35;18.67;;;;;;;;;;5035839;28;20057;-61
2024/02/27 02:24:30;;;;;;;22.45;18.27;;;;;;;;;;5036047;28;20053;-61
2024/02/27 02:26:58;;;;;;;24.40;20.02;;;;;;;;;;5035966;28;20058;-61
2024/02/27 02:29:28;;;;;;;23.80;19.15;;;;;;;;;;5035551;28;20060;-61
2024/02/27 02:31:55;;;;;;;22.83;18.85;;;;;;;;;;5035402;28;20049;-61
2024/02/27 02:34:22;;;;;;;24.33;19.20;;;;;;;;;;5035851;28;20060;-61
2024/02/27 02:36:49;;;;;;;23.05;18.45;;;;;;;;;;5035698;28;20408;-62
2024/02/27 02:39:17;;;;;;;24.33;18.75;;;;;;;;;;5035558;28;20053;-62
2024/02/27 02:41:44;;;;;;;21.45;17.13;;;;;;;;;;5035463;28;20053;-61
2024/02/27 02:44:10;;;;;;;23.98;19.33;;;;;;;;;;5035558;28;20060;-61
2024/02/27 02:46:38;;;;;;;22.85;18.20;;;;;;;;;;5044780;28;20053;-61
2024/02/27 02:49:05;;;;;;;22.95;18.63;;;;;;;;;;5055022;28;20052;-61
2024/02/27 02:51:32;;;;;;;21.90;17.83;;;;;;;;;;5054921;28;20060;-62
2024/02/27 02:53:59;;;;;;;23.30;18.23;;;;;;;;;;5054936;28;20443;-62
2024/02/27 02:56:28;;;;;;;23.60;18.45;;;;;;;;;;5054815;28;20064;-62
2024/02/27 02:58:55;;;;;;;24.05;19.50;;;;;;;;;;5054678;28;20049;-61
2024/02/27 03:01:22;;;;;;;22.88;18.20;;;;;;;;;;5054682;28;20053;-61
2024/02/27 03:03:48;;;;;;;22.10;18.35;;;;;;;;;;5054645;28;20076;-61
2024/02/27 03:06:16;;;;;;;23.13;18.65;;;;;;;;;;5054354;28;20057;-61
2024/02/27 03:08:43;;;;;;;25.40;20.38;;;;;;;;;;5054629;28;20399;-61
2024/02/27 03:11:10;;;;;;;25.33;19.92;;;;;;;;;;5052883;28;20063;-61
2024/02/27 03:13:38;;;;;;;24.10;19.40;;;;;;;;;;5054320;28;20048;-61
2024/02/27 03:16:05;;;;;;;22.63;18.70;;;;;;;;;;5054462;28;20357;-61
2024/02/27 03:18:32;;;;;;;25.80;19.27;;;;;;;;;;5054405;28;20408;-61
2024/02/27 03:20:58;;;;;;;26.60;21.02;;;;;;;;;;5054371;28;20052;-61
2024/02/27 03:23:25;;;;;;;24.63;20.23;;;;;;;;;;5054165;28;20053;-61
2024/02/27 03:25:52;;;;;;;24.17;20.80;;;;;;;;;;5054280;28;20411;-60
2024/02/27 03:28:19;;;;;;;25.05;19.88;;;;;;;;;;5054235;28;20049;-60
2024/02/27 03:30:47;;;;;;;26.15;20.38;;;;;;;;;;5053952;28;20411;-61
2024/02/27 03:33:14;;;;;;;24.33;19.67;;;;;;;;;;5054081;28;20057;-61
2024/02/27 03:35:40;;;;;;;25.23;18.80;;;;;;;;;;5054168;28;20072;-61
2024/02/27 03:38:08;;;;;;;23.75;19.13;;;;;;;;;;5054044;28;20060;-61
2024/02/27 03:40:35;;;;;;;24.77;20.50;;;;;;;;;;5053792;28;20060;-61
2024/02/27 03:43:01;;;;;;;27.40;20.88;;;;;;;;;;5053882;28;20053;-61
2024/02/27 03:45:28;;;;;;;26.60;20.13;;;;;;;;;;5053770;28;20053;-60
2024/02/27 03:47:56;;;;;;;23.30;19.17;;;;;;;;;;5053775;28;20060;-60
2024/02/27 03:50:23;;;;;;;24.27;19.98;;;;;;;;;;5053582;28;20053;-61
2024/02/27 03:52:50;;;;;;;25.98;19.88;;;;;;;;;;5053780;28;20409;-61
2024/02/27 03:55:17;;;;;;;23.55;19.40;;;;;;;;;;5053560;28;20060;-61
2024/02/27 03:57:43;;;;;;;26.23;19.98;;;;;;;;;;5053734;28;20052;-61
2024/02/27 04:00:11;;;;;;;26.75;19.98;;;;;;;;;;5053775;28;20063;-62
2024/02/27 04:02:38;;;;;;;23.65;19.33;;;;;;;;;;5053736;28;20060;-61
2024/02/27 04:05:07;;;;;;;22.63;19.02;;;;;;;;;;5053240;28;20057;-61
2024/02/27 04:07:34;;;;;;;25.05;19.73;;;;;;;;;;5053581;28;20059;-61
2024/02/27 04:10:01;;;;;;;22.38;18.05;;;;;;;;;;5053570;28;20072;-61
2024/02/27 04:12:28;;;;;;;23.67;18.63;;;;;;;;;;5053017;28;20045;-61
2024/02/27 04:14:54;;;;;;;26.40;20.67;;;;;;;;;;5053370;28;20053;-61
2024/02/27 04:17:21;;;;;;;26.88;21.48;;;;;;;;;;5052921;28;20049;-61
2024/02/27 04:19:48;;;;;;;25.05;19.95;;;;;;;;;;5053463;28;20395;-61
2024/02/27 04:22:16;;;;;;;27.25;19.98;;;;;;;;;;5052697;28;20400;-61
2024/02/27 04:24:43;;;;;;;25.45;19.05;;;;;;;;;;5053401;28;20064;-61
2024/02/27 04:27:10;;;;;;;26.42;20.52;;;;;;;;;;5053192;28;20049;-61
2024/02/27 04:29:36;;;;;;;24.23;18.85;;;;;;;;;;5053179;28;20057;-61
2024/02/27 04:32:03;;;;;;;25.95;20.40;;;;;;;;;;5052984;28;20045;-61
2024/02/27 04:34:29;;;;;;;24.80;19.75;;;;;;;;;;5053469;28;20052;-61
2024/02/27 04:36:56;;;;;;;24.38;19.33;;;;;;;;;;5052700;28;20379;-61
2024/02/27 04:39:25;;;;;;;27.98;20.52;;;;;;;;;;5053025;28;20053;-61
2024/02/27 04:41:51;;;;;;;26.02;19.70;;;;;;;;;;5052799;28;20044;-61
2024/02/27 04:44:19;;;;;;;23.80;18.77;;;;;;;;;;5052783;28;20065;-61
2024/02/27 04:46:46;;;;;;;26.48;19.48;;;;;;;;;;5052432;28;20067;-61
2024/02/27 04:49:13;;;;;;;25.00;19.50;;;;;;;;;;5052883;28;20053;-61
2024/02/27 04:51:40;;;;;;;25.67;19.52;;;;;;;;;;5052464;28;20049;-61
2024/02/27 04:54:07;;;;;;;25.50;19.48;;;;;;;;;;5052644;28;20057;-63
2024/02/27 04:56:35;;;;;;;25.95;19.67;;;;;;;;;;5052537;28;20052;-61
2024/02/27 04:59:02;;;;;;;24.40;19.88;;;;;;;;;;5052471;28;20053;-62
2024/02/27 05:01:29;;;;;;;26.63;19.90;;;;;;;;;;5052186;28;20053;-60
2024/02/27 05:03:56;;;;;;;26.25;20.17;;;;;;;;;;5052276;28;20053;-63
2024/02/27 05:06:22;;;;;;;23.42;18.65;;;;;;;;;;5052104;28;20053;-60
2024/02/27 05:08:49;;;;;;;24.55;19.05;;;;;;;;;;5052428;28;20053;-63
2024/02/27 05:11:16;;;;;;;24.20;19.17;;;;;;;;;;5052284;28;20380;-61
2024/02/27 05:13:44;;;;;;;24.75;19.33;;;;;;;;;;5052150;28;20056;-61
2024/02/27 05:16:11;;;;;;;26.00;20.30;;;;;;;;;;5052024;28;20072;-61
2024/02/27 05:18:39;;;;;;;29.85;22.25;;;;;;;;;;5052001;28;20052;-61
2024/02/27 05:21:06;;;;;;;27.00;21.73;;;;;;;;;;5052345;28;20065;-61
2024/02/27 05:23:34;;;;;;;23.00;18.55;;;;;;;;;;5052211;28;20049;-61
2024/02/27 05:26:00;;;;;;;26.52;20.45;;;;;;;;;;5052293;28;20056;-61
2024/02/27 05:28:27;;;;;;;30.15;22.42;;;;;;;;;;5051897;28;20060;-61
2024/02/27 05:30:55;;;;;;;26.90;19.52;;;;;;;;;;5052206;28;20056;-61
2024/02/27 05:33:22;;;;;;;25.83;20.35;;;;;;;;;;5051311;28;20053;-60
2024/02/27 05:35:49;;;;;;;26.17;20.05;;;;;;;;;;5051850;28;20511;-61
2024/02/27 05:38:16;;;;;;;24.58;18.58;;;;;;;;;;5051971;28;20056;-61
2024/02/27 05:40:43;;;;;;;23.90;19.60;;;;;;;;;;5051655;28;20408;-61
2024/02/27 05:43:10;;;;;;;24.95;18.65;;;;;;;;;;5051758;28;20049;-61
2024/02/27 05:45:36;;;;;;;24.52;19.45;;;;;;;;;;5051685;28;20052;-61
2024/02/27 05:48:05;;;;;;;25.08;19.88;;;;;;;;;;5052499;28;20049;-61
2024/02/27 05:50:32;;;;;;;22.15;18.67;;;;;;;;;;5051738;28;20064;-61
2024/02/27 05:52:59;;;;;;;24.77;19.35;;;;;;;;;;5051383;28;20067;-61
2024/02/27 05:55:26;;;;;;;25.45;19.73;;;;;;;;;;5051594;28;20057;-62
2024/02/27 05:57:52;;;;;;;26.15;20.63;;;;;;;;;;5051790;28;20053;-62
2024/02/27 06:00:20;;;;;;;26.63;20.08;;;;;;;;;;5051536;28;20057;-62
2024/02/27 06:02:46;;;;;;;25.17;20.25;;;;;;;;;;5052003;28;20377;-62
2024/02/27 06:05:14;;;;;;;24.15;19.48;;;;;;;;;;5051400;28;20057;-62
2024/02/27 06:07:41;;;;;;;26.75;20.63;;;;;;;;;;5051726;28;20064;-62
2024/02/27 06:10:09;;;;;;;25.13;19.98;;;;;;;;;;5051964;28;20056;-62
2024/02/27 06:12:35;;;;;;;26.52;21.30;;;;;;;;;;5051726;28;20550;-62
2024/02/27 06:15:03;;;;;;;26.02;19.88;;;;;;;;;;5051878;28;20404;-61
2024/02/27 06:17:30;;;;;;;25.88;20.50;;;;;;;;;;5051316;28;20053;-62
2024/02/27 06:20:00;;;;;;;23.77;19.00;;;;;;;;;;5052289;28;20377;-61
2024/02/27 06:22:29;;;;;;;25.88;20.40;;;;;;;;;;5051705;28;20060;-62
2024/02/27 06:24:56;;;;;;;25.02;20.13;;;;;;;;;;5051922;28;20064;-62
2024/02/27 06:27:22;;;;;;;24.08;19.88;;;;;;;;;;5051803;28;20484;-62
2024/02/27 06:29:50;;;;;;;23.95;19.60;;;;;;;;;;5051802;28;20057;-62
2024/02/27 06:32:16;;;;;;;21.13;17.33;;;;;;;;;;5051271;28;20053;-62
2024/02/27 06:34:43;;;;;;;22.33;18.35;;;;;;;;;;5051681;28;20403;-62
2024/02/27 06:37:10;;;;;;;24.88;18.88;;;;;;;;;;5051727;28;20059;-62
2024/02/27 06:39:38;;;;;;;24.10;19.08;;;;;;;;;;5052177;28;20049;-62
2024/02/27 06:42:06;;;;;;;22.98;19.15;;;;;;;;;;5051041;28;20053;-62
2024/02/27 06:44:32;;;;;;;24.08;18.67;;;;;;;;;;5052576;28;20053;-62
2024/02/27 06:46:59;;;;;;;24.70;18.90;;;;;;;;;;5054552;28;20057;-62
2024/02/27 06:49:26;;;;;;;24.40;19.08;;;;;;;;;;5055071;28;20076;-62
2024/02/27 06:51:53;;;;;;;26.52;19.63;;;;;;;;;;5054904;28;20056;-61
2024/02/27 06:54:20;;;;;;;25.08;19.45;;;;;;;;;;5054550;28;20412;-61
2024/02/27 06:56:50;;;;;;;27.38;20.70;;;;;;;;;;5055199;28;20403;-60
2024/02/27 06:59:17;;;;;;;25.85;20.40;;;;;;;;;;5054971;28;20053;-60
2024/02/27 07:01:44;;;;;;;24.38;19.33;;;;;;;;;;5054448;28;20053;-61
2024/02/27 07:04:10;;;;;;;26.20;20.40;;;;;;;;;;5054262;28;20057;-61
2024/02/27 07:06:37;;;;;;;26.75;20.50;;;;;;;;;;5054716;28;20408;-60
2024/02/27 07:09:04;;;;;;;23.20;19.20;;;;;;;;;;5054968;28;20060;-60
2024/02/27 07:11:33;;;;;;;26.02;20.75;;;;;;;;;;5053700;28;20506;-61
2024/02/27 07:14:01;;;;;;;23.85;19.73;;;;;;;;;;5053184;28;20064;-60
2024/02/27 07:16:28;;;;;;;25.13;19.85;;;;;;;;;;5054423;28;20048;-61
2024/02/27 07:18:55;;;;;;;23.83;19.00;;;;;;;;;;5053748;28;20076;-60
2024/02/27 07:21:21;;;;;;;26.30;19.77;;;;;;;;;;5054428;28;20063;-61
2024/02/27 07:23:48;;;;;;;23.85;19.20;;;;;;;;;;5054281;28;20377;-61
2024/02/27 07:26:15;;;;;;;23.63;19.17;;;;;;;;;;5054389;28;20408;-61
2024/02/27 07:28:43;;;;;;;25.52;19.13;;;;;;;;;;5053702;28;20048;-61
2024/02/27 07:31:11;;;;;;;24.73;19.17;;;;;;;;;;5053855;28;20072;-60
2024/02/27 07:33:38;;;;;;;22.05;17.67;;;;;;;;;;5053698;28;20053;-61
2024/02/27 07:36:05;;;;;;;23.50;18.98;;;;;;;;;;5053592;28;20064;-61
2024/02/27 07:38:32;;;;;;;24.17;18.30;;;;;;;;;;5054321;28;20103;-61
2024/02/27 07:40:59;;;;;;;24.90;19.55;;;;;;;;;;5053662;28;20053;-62
2024/02/27 07:43:25;;;;;;;22.23;18.17;;;;;;;;;;5053969;28;20056;-63
2024/02/27 07:45:52;;;;;;;23.02;19.33;;;;;;;;;;5053972;28;20061;-61
2024/02/27 07:48:21;;;;;;;23.02;17.83;;;;;;;;;;5053824;28;20060;-62
2024/02/27 07:50:48;;;;;;;22.33;17.55;;;;;;;;;;5053605;28;20155;-62
2024/02/27 07:53:15;;;;;;;24.50;17.20;;;;;;;;;;5054111;28;20085;-62
2024/02/27 07:55:42;;;;;;;24.58;18.52;;;;;;;;;;5053387;28;20064;-62
2024/02/27 07:58:09;;;;;;;23.05;18.60;;;;;;;;;;5053790;28;20728;-62
2024/02/27 08:00:36;;;;;;;24.13;19.10;;;;;;;;;;5053605;28;20064;-63
2024/02/27 08:03:04;;;;;;;21.90;18.05;;;;;;;;;;5053624;28;20530;-62
2024/02/27 08:05:32;;;;;;;19.90;16.70;;;;;;;;;;5053640;28;20111;-62
2024/02/27 08:07:59;;;;;;;22.25;17.90;;;;;;;;;;5053628;28;20415;-63
2024/02/27 08:10:24;;;;;;;22.27;17.73;;;;;;;;;;5053502;28;20079;-63
2024/02/27 08:12:52;;;;;;;22.02;16.67;;;;;;;;;;5053591;28;20041;-63
2024/02/27 08:15:19;;;;;;;22.17;17.20;;;;;;;;;;5053572;28;20057;-62
2024/02/27 08:17:46;;;;;;;20.13;16.63;;;;;;;;;;5053820;28;20057;-62
2024/02/27 08:20:13;;;;;;;23.17;18.40;;;;;;;;;;5053523;28;20060;-62
2024/02/27 08:22:41;;;;;;;22.15;17.40;;;;;;;;;;5053737;28;20399;-62
2024/02/27 08:25:08;;;;;;;20.83;16.77;;;;;;;;;;5053546;28;20136;-62
2024/02/27 08:27:35;;;;;;;22.63;17.15;;;;;;;;;;5053131;28;20427;-63
2024/02/27 08:30:04;;;;;;;21.70;17.92;;;;;;;;;;5053517;28;20511;-62
2024/02/27 08:32:31;;;;;;;20.70;17.25;;;;;;;;;;5052905;28;20045;-62
2024/02/27 08:34:58;;;;;;;21.77;17.95;;;;;;;;;;5053345;28;20056;-62
2024/02/27 08:37:25;;;;;;;20.83;16.90;;;;;;;;;;5053370;28;20057;-62
2024/02/27 08:39:53;;;;;;;23.75;19.25;;;;;;;;;;5053416;28;20061;-62
2024/02/27 08:42:20;;;;;;;25.00;20.35;;;;;;;;;;5052620;28;20049;-62
2024/02/27 08:44:47;;;;;;;22.70;17.48;;;;;;;;;;5053286;28;20056;-62
2024/02/27 08:47:14;;;;;;;21.52;16.73;;;;;;;;;;5052606;28;20416;-63
2024/02/27 08:49:41;;;;;;;21.58;17.48;;;;;;;;;;5053215;28;20049;-62
2024/02/27 08:52:08;;;;;;;22.38;17.73;;;;;;;;;;5052632;28;20052;-62
2024/02/27 08:54:35;;;;;;;20.30;16.73;;;;;;;;;;5052489;28;20522;-63
2024/02/27 08:57:03;;;;;;;23.40;17.35;;;;;;;;;;5052916;28;20072;-63
2024/02/27 08:59:30;;;;;;;21.60;16.77;;;;;;;;;;5052859;28;20064;-63
2024/02/27 09:01:57;;;;;;;20.58;16.60;;;;;;;;;;5052975;28;20488;-63
2024/02/27 09:04:24;;;;;;;20.60;17.05;;;;;;;;;;5052148;28;20048;-63
2024/02/27 09:06:51;;;;;;;19.92;16.90;;;;;;;;;;5052552;28;20053;-63
2024/02/27 09:09:17;;;;;;;20.85;16.48;;;;;;;;;;5052409;28;20052;-63
2024/02/27 09:11:47;;;;;;;19.83;16.15;;;;;;;;;;5052394;28;20507;-63
2024/02/27 09:14:15;;;;;;;19.42;15.45;;;;;;;;;;5051975;28;20056;-62
2024/02/27 09:16:42;;;;;;;20.17;16.10;;;;;;;;;;5051700;28;20064;-62
2024/02/27 09:19:09;;;;;;;18.45;15.15;;;;;;;;;;5052248;28;20492;-63
2024/02/27 09:21:35;;;;;;;20.45;16.35;;;;;;;;;;5052366;28;20393;-63
2024/02/27 09:24:02;;;;;;;20.65;16.33;;;;;;;;;;5051606;28;20052;-63
2024/02/27 09:26:29;;;;;;;19.67;16.08;;;;;;;;;;5051880;28;20060;-62
2024/02/27 09:28:56;;;;;;;18.95;15.82;;;;;;;;;;5052369;28;20052;-63
2024/02/27 09:31:24;;;;;;;19.83;16.10;;;;;;;;;;5051648;28;20365;-62
2024/02/27 09:33:51;;;;;;;20.92;16.95;;;;;;;;;;5052137;28;20060;-63
2024/02/27 09:36:18;;;;;;;18.77;15.70;;;;;;;;;;5051861;28;20357;-63
2024/02/27 09:38:45;;;;;;;19.83;16.75;;;;;;;;;;5051979;28;20060;-63
2024/02/27 09:41:14;;;;;;;20.35;16.35;;;;;;;;;;5051308;28;20056;-62
2024/02/27 09:43:44;;;;;;;21.02;16.65;;;;;;;;;;5051877;28;20372;-62
2024/02/27 09:46:11;;;;;;;22.25;18.38;;;;;;;;;;5051906;28;20061;-62
2024/02/27 09:48:43;;;;;;;22.02;17.90;;;;;;;;;;5051793;28;20057;-63
2024/02/27 09:51:11;;;;;;;25.08;20.15;;;;;;;;;;5051754;28;20439;-60
2024/02/27 09:53:39;;;;;;;25.05;19.90;;;;;;;;;;5051857;28;20056;-63
2024/02/27 09:56:08;;;;;;;22.05;17.83;;;;;;;;;;5051890;28;20049;-63
2024/02/27 09:58:38;;;;;;;21.88;18.23;;;;;;;;;;5051740;28;20063;-61
2024/02/27 10:01:05;;;;;;;;;;;;;;;;;;5051697;28;20146;-61
2024/02/27 10:03:32;;;;;;;32.28;23.40;;;;;;;;;;5051583;28;19927;-63
2024/02/27 10:06:01;;;;;;;22.45;18.05;;;;;;;;;;5051517;28;20064;-60
2024/02/27 10:08:29;;;;;;;20.42;15.48;;;;;;;;;;5051725;28;20477;-61
2024/02/27 10:10:56;;;;;;;19.25;15.38;;;;;;;;;;5051325;28;20060;-61
2024/02/27 10:13:22;;;;;;;18.13;14.85;;;;;;;;;;5051594;28;20396;-61
2024/02/27 10:15:49;;;;;;;17.50;14.40;;;;;;;;;;5051085;28;20060;-61
2024/02/27 10:18:16;;;;;;;17.27;15.02;;;;;;;;;;5051125;28;20064;-62
2024/02/27 10:20:43;;;;;;;17.80;15.00;;;;;;;;;;5054831;28;20511;-61
2024/02/27 10:23:12;;;;;;;17.00;14.02;;;;;;;;;;5055303;28;20063;-61
2024/02/27 10:25:38;;;;;;;17.58;14.63;;;;;;;;;;5055552;28;20060;-62
2024/02/27 10:28:06;;;;;;;17.73;14.85;;;;;;;;;;5054115;28;20059;-61
2024/02/27 10:30:35;;;;;;;18.25;15.80;;;;;;;;;;5054797;28;20053;-61
2024/02/27 10:33:03;;;;;;;17.98;15.20;;;;;;;;;;5054375;28;20048;-61
2024/02/27 10:35:32;;;;;;;17.05;14.18;;;;;;;;;;5055135;28;20057;-61
2024/02/27 10:37:59;;;;;;;17.33;13.77;;;;;;;;;;5055041;28;20057;-61
2024/02/27 10:40:29;;;;;;;17.92;14.45;;;;;;;;;;5054778;28;20053;-61
2024/02/27 10:42:56;;;;;;;19.25;15.52;;;;;;;;;;5054874;28;20496;-61
2024/02/27 10:45:24;;;;;;;21.23;15.73;;;;;;;;;;5055321;28;20498;-61
2024/02/27 10:47:51;;;;;;;19.85;15.05;;;;;;;;;;5054419;28;20053;-60
2024/02/27 10:50:18;;;;;;;17.67;14.85;;;;;;;;;;5054996;28;20052;-61
2024/02/27 10:52:44;;;;;;;18.33;14.07;;;;;;;;;;5054216;28;20056;-61
2024/02/27 10:55:12;;;;;;;21.15;16.95;;;;;;;;;;5054801;28;20056;-63
2024/02/27 10:57:40;;;;;;;18.10;15.48;;;;;;;;;;5054533;28;20393;-61
2024/02/27 11:00:10;;;;;;;20.45;17.05;;;;;;;;;;5054588;28;20320;-62
2024/02/27 11:02:42;;;;;;;18.65;15.30;;;;;;;;;;5054324;28;20049;-61
2024/02/27 11:05:10;;;;;;;17.60;14.73;;;;;;;;;;5054994;28;20444;-61
2024/02/27 11:07:36;;;;;;;17.17;13.95;;;;;;;;;;5053706;28;20408;-61
2024/02/27 11:10:04;;;;;;;17.27;14.30;;;;;;;;;;5054865;28;20478;-62
2024/02/27 11:12:32;;;;;;;16.35;13.35;;;;;;;;;;5054687;28;20424;-62
2024/02/27 11:15:03;;;;;;;18.33;14.18;;;;;;;;;;5054932;28;20376;-61
2024/02/27 11:17:32;;;;;;;17.58;14.70;;;;;;;;;;5054466;28;20057;-62
2024/02/27 11:20:00;;;;;;;18.77;14.52;;;;;;;;;;5054428;28;20052;-62
2024/02/27 11:22:27;;;;;;;16.90;13.65;;;;;;;;;;5053696;28;20101;-62
2024/02/27 11:24:54;;;;;;;17.58;12.98;;;;;;;;;;5053955;28;20068;-62
2024/02/27 11:27:22;;;;;;;15.60;13.32;;;;;;;;;;5053906;28;20057;-61
2024/02/27 11:29:49;;;;;;;17.85;14.18;;;;;;;;;;5053594;28;20071;-61
2024/02/27 11:32:17;;;;;;;16.80;12.80;;;;;;;;;;5053032;28;20061;-61
2024/02/27 11:34:46;;;;;;;16.33;13.10;;;;;;;;;;5054155;28;20045;-61
2024/02/27 11:37:17;;;;;;;16.30;13.25;;;;;;;;;;5053713;28;20057;-61
2024/02/27 11:39:44;;;;;;;15.95;13.70;;;;;;;;;;5053838;28;20057;-61
2024/02/27 11:42:21;;;;;;;17.17;13.73;;;;;;;;;;5053552;28;20064;-61
2024/02/27 11:45:04;;;;;;;15.32;13.55;;;;;;;;;;5053675;28;20056;-61
2024/02/27 11:47:36;;;;;;;17.13;14.10;;;;;;;;;;5053378;28;20075;-61
2024/02/27 11:50:03;;;;;;;17.08;14.07;;;;;;;;;;5053769;28;20503;-63
2024/02/27 11:52:33;;;;;;;15.10;12.88;;;;;;;;;;5053065;28;20064;-63
2024/02/27 11:55:05;;;;;;;14.38;12.57;;;;;;;;;;5053293;28;20045;-60
2024/02/27 11:57:34;;;;;;;16.33;12.77;;;;;;;;;;5053259;28;20506;-62
2024/02/27 12:00:08;;;;;;;15.38;12.45;;;;;;;;;;5054005;28;20404;-63
2024/02/27 12:02:37;;;;;;;15.02;11.23;;;;;;;;;;5053749;28;20392;-62
2024/02/27 12:05:04;;;;;;;13.77;12.15;;;;;;;;;;5053999;28;20052;-62
2024/02/27 12:07:32;;;;;;;16.13;12.20;;;;;;;;;;5053515;28;20053;-62
2024/02/27 12:10:05;;;;;;;15.20;12.70;;;;;;;;;;5053816;28;20053;-61
2024/02/27 12:12:32;;;;;;;15.95;13.90;;;;;;;;;;5054004;28;20072;-62
2024/02/27 12:14:59;;;;;;;16.58;12.20;;;;;;;;;;5053874;28;20052;-62
2024/02/27 12:17:26;;;;;;;13.93;12.13;;;;;;;;;;5053622;28;20059;-62
2024/02/27 12:19:55;;;;;;;16.70;12.50;;;;;;;;;;5053496;28;20052;-63
2024/02/27 12:22:21;;;;;;;13.55;11.55;;;;;;;;;;5053061;28;20049;-61
2024/02/27 12:24:48;;;;;;;12.85;11.43;;;;;;;;;;5053488;28;20060;-61
2024/02/27 12:27:15;;;;;;;13.25;11.80;;;;;;;;;;5053032;28;20485;-60
2024/02/27 12:29:42;;;;;;;14.18;11.63;;;;;;;;;;5053398;28;20059;-61
2024/02/27 12:32:09;;;;;;;14.27;11.23;;;;;;;;;;5053069;28;20064;-61
2024/02/27 12:34:37;;;;;;;13.82;12.10;;;;;;;;;;5052956;28;20055;-61
2024/02/27 12:37:05;;;;;;;15.02;12.20;;;;;;;;;;5052688;28;20049;-60
2024/02/27 12:39:32;;;;;;;14.30;12.68;;;;;;;;;;5053207;28;20495;-60
2024/02/27 12:42:00;;;;;;;14.48;12.05;;;;;;;;;;5052354;28;20052;-60
2024/02/27 12:44:27;;;;;;;13.88;12.10;;;;;;;;;;5052584;28;20059;-60
2024/02/27 12:46:54;;;;;;;14.45;12.73;;;;;;;;;;5052691;28;20060;-60
2024/02/27 12:49:21;;;;;;;13.85;11.68;;;;;;;;;;5053166;28;20055;-61
2024/02/27 12:51:48;;;;;;;14.25;12.63;;;;;;;;;;5052739;28;20044;-60
2024/02/27 12:54:16;;;;;;;13.85;11.65;;;;;;;;;;5052585;28;20057;-63
2024/02/27 12:56:45;;;;;;;14.35;11.80;;;;;;;;;;5052688;28;20393;-63
2024/02/27 12:59:11;;;;;;;13.40;11.77;;;;;;;;;;5052899;28;20053;-61
2024/02/27 13:01:39;;;;;;;13.25;11.63;;;;;;;;;;5052723;28;20484;-61
2024/02/27 13:04:07;;;;;;;13.23;11.48;;;;;;;;;;5052003;28;20057;-61
2024/02/27 13:06:34;;;;;;;13.93;11.75;;;;;;;;;;5052575;28;20059;-61
2024/02/27 13:09:02;;;;;;;12.93;11.32;;;;;;;;;;5052399;28;20060;-61
2024/02/27 13:11:30;;;;;;;12.25;10.80;;;;;;;;;;5052178;28;20064;-61
2024/02/27 13:13:57;;;;;;;11.32;10.13;;;;;;;;;;5052313;28;20049;-61
2024/02/27 13:16:24;;;;;;;10.93;8.90;;;;;;;;;;5052405;28;20049;-61
2024/02/27 13:18:52;;;;;;;10.25;9.25;;;;;;;;;;5052642;28;20057;-61
2024/02/27 13:21:19;;;;;;;10.13;8.85;;;;;;;;;;5052038;28;20080;-61
2024/02/27 13:23:50;;;;;;;9.82;8.82;;;;;;;;;;5052332;28;20408;-61
2024/02/27 13:26:17;;;;;;;10.38;9.13;;;;;;;;;;5052421;28;20049;-61
2024/02/27 13:28:45;;;;;;;10.05;9.05;;;;;;;;;;5052410;28;20056;-61
2024/02/27 13:31:12;;;;;;;9.40;8.50;;;;;;;;;;5052200;28;20064;-61
2024/02/27 13:33:39;;;;;;;11.07;9.98;;;;;;;;;;5052402;28;20053;-61
2024/02/27 13:36:06;;;;;;;9.50;8.60;;;;;;;;;;5052564;28;20389;-62
2024/02/27 13:38:33;;;;;;;10.35;9.25;;;;;;;;;;5052354;28;20057;-62
2024/02/27 13:41:00;;;;;;;13.32;10.75;;;;;;;;;;5052578;28;20059;-62
2024/02/27 13:43:27;;;;;;;14.77;11.52;;;;;;;;;;5052044;28;20060;-62
2024/02/27 13:45:55;;;;;;;12.65;10.90;;;;;;;;;;5052244;28;20056;-62
2024/02/27 13:48:22;;;;;;;12.23;10.52;;;;;;;;;;5051750;28;20057;-62
2024/02/27 13:50:50;;;;;;;12.80;10.13;;;;;;;;;;5052135;28;20057;-62
2024/02/27 13:53:17;;;;;;;10.63;9.57;;;;;;;;;;5051921;28;20392;-62
2024/02/27 13:55:44;;;;;;;10.57;9.48;;;;;;;;;;5055232;28;20049;-62
2024/02/27 13:58:10;;;;;;;10.70;8.98;;;;;;;;;;5056183;28;20056;-62
2024/02/27 14:00:37;;;;;;;10.90;9.13;;;;;;;;;;5056044;28;20057;-62
2024/02/27 14:03:08;;;;;;;10.40;8.73;;;;;;;;;;5055624;28;20053;-62
2024/02/27 14:05:35;;;;;;;9.43;8.48;;;;;;;;;;5056191;28;20049;-62
2024/02/27 14:08:02;;;;;;;10.50;9.50;;;;;;;;;;5055953;28;20052;-62
2024/02/27 14:10:28;;;;;;;10.05;9.05;;;;;;;;;;5055985;28;20072;-62
2024/02/27 14:12:55;;;;;;;14.25;12.95;;;;;;;;;;5055501;28;20057;-61
2024/02/27 14:15:23;;;;;;;11.25;10.15;;;;;;;;;;5055300;28;20053;-62
2024/02/27 14:17:49;;;;;;;10.35;9.35;;;;;;;;;;5055412;28;20057;-62
2024/02/27 14:20:18;;;;;;;10.40;9.48;;;;;;;;;;5055976;28;20484;-62